Yona, GU

5:37 PM ChST on July 07, 2015 (GMT +1000)
Ordot Dump | | Change Station
CLOSE
Current Station
Personal Weather Station
Location: Chalan Pago Ordot,
Elevation: 282 ft
Nearby Weather Stations
Active Advisory: High Surf Advisory

Elev 282 ft 13.44 °N, 144.75 °E | Updated 1 second ago

Mostly Cloudy
Mostly Cloudy
81.1 °F
Feels Like 88 °F
N
2.0
Wind Variable Wind from WSW
Gusts 5.0 mph

Today
High -- | Low -- °F
--% Chance of Precip.
Yesterday
High -- | Low -- °F
Precip. -- in
5:59 AM 6:52 PM
Waning Gibbous, 67% visible
Pressure 29.74 in
Visibility 10.0 miles
Clouds Scattered Clouds 2300 ft
Mostly Cloudy 3000 ft
Mostly Cloudy 6000 ft
Heat Index 88 °F
Dew Point 77 °F
Humidity 88%
Rainfall 0.00 in
Snow Depth Not available.
UV 2 out of 12
Pollen Not available.
Air Quality Not available.
Flu Activity Not available.
METAR PGUM 070654Z 23011KT 10SM SCT023 BKN030 BKN060 28/24 A2976 RMK AO2 SLP069 T02780244

More Conditions Fewer Conditions

Pressure 29.74 in
Visibility 10.0 miles
Clouds Scattered Clouds 2300 ft
Mostly Cloudy 3000 ft
Mostly Cloudy 6000 ft
Heat Index 88 °F
Dew Point 77 °F
Humidity 88%
Rainfall 0.00 in
Snow Depth Not available.
UV 2 out of 12
Pollen Not available.
Air Quality Not available.
Flu Activity Not available.
METAR PGUM 070654Z 23011KT 10SM SCT023 BKN030 BKN060 28/24 A2976 RMK AO2 SLP069 T02780244

More Conditions Fewer Conditions

10-Day Weather Forecast

×

Almanac

Astronomy

Jul. 07, 2015 Rise Set
Actual Time
Civil Twilight
Nautical Twilight
Astronomical Twilight
Moon
Length of Visible Light
Length of Day
Tomorrow will be .
, % of the Moon is Illuminated

Today's Extremes

State Highs State Lows

Community

WunderPhotos

Upload Photos

1,835,756 photos uploaded!

WunderBlogs® & News

Nearby

Air Quality

  Air Quality AQ Index Pollutant
Not available.

Snow Depth

Station Depth Elevation

Earthquake Activity

City Distance Mag. Time & Date
Minimum magnitude displayed is 2.5.

Coastal Water Temperatures

Place Temperature

Stations

Nearby Weather Stations

Station Location Temp. Windchill Dew Point Humidity Wind Precip. Elev Updated Type
                   
High Surf Advisory
Statement as of 4:18 PM GMT on July 07, 2015

... High surf advisory remains in effect until 6 PM chst
Thursday...

* expect hazardous surf at 9 to 11 feet along west facings reefs
and 7 to 9 feet along south facing reefs through Wednesday.

* Hazardous surf may spread to north and east facing reefs
Wednesday night or Thursday.

Precautionary/preparedness actions...

Avoid venturing near exposed reefs and beaches... especially those
facing south and west... as rip currents will be life threatening.